aviador You're here:

ETAD Decoded Metar

SPANGDAHLEM in GERMANY
Report Time2017-07-22 22:58:00
UTC Time2017-07-23 00:54:42
Flight Rules Old
Wind230° at 06 kt
W.Decomp.*RWY 23: 6.0 kt HW 0.1 kt LCW
W.Rank230° ranks 1
Current wind is below 230° avg. (8.3)
Visibility9999 m
Phenomena:N/A
Clouds:Few 070 Hf
Scattered 100 Hf
Expected CloudBase > 400 ft AGL from Temp-Dew spread
CeilingNone
Temp16°C (ISA +3)
Dew Point15°C (94% RH)
AAT15.5°C
QNH1014 hPa
Density Alt1,795 ft
Elevation1,198 ft
Report Wrong Elevation
Raw Report
ETAD 222258Z AUTO 23006KT 9999 FEW070 SCT100 16/15 A2993 RMK AO2
RAB2158E26DZB26E28RAB28E32 SLP114 P0001 T01590147 402570158
TSNO $=

Extra information for ETAD:More info

Metar Taf Metar & Taf Last 4 Metars F.Rules Stats Wind Profile Meteogram Temp Stats Airport Information Weather charts Add Link Nearby VenuesMetar ALERT Operation Metar Decoded Social comments